LMML/MLA METAR and TAF weather

Enter ICAO airport designator
Station Type Date Time Source
LMML METAR 2022/06/28 10:15 UTC NOAA

LMML 281015Z 20008KT 160V230 CAVOK 35/09 Q1015 NOSIG


Station Type Date Time Source
LMML Decoded METAR 2022/06/28 10:15 UTC NOAA

Luqa, Malta (LMML) 35-51N 014-29E 91M
Jun 28, 2022 - 06:15 AM EDT / 2022.06.28 1015 UTC
Wind: from the SSW (200 degrees) at 9 MPH (8 KT) (direction variable):0
Visibility: greater than 7 mile(s):0
Temperature: 95 F (35 C)
Dew Point: 48 F (9 C)
Relative Humidity: 20%
Pressure (altimeter): 29.97 in. Hg (1015 hPa)
ob: LMML 281015Z 20008KT 160V230 CAVOK 35/09 Q1015 NOSIG
cycle: 10

Station Type Date Time Source
LMML TAF 2022/06/28 06:46 UTC NOAA

TAF LMML 280500Z 2806/2906 VRB07KT CAVOK PROB40 2821/2906 8000 BKN005
BECMG 2823/2902 29010KT

Example: see airport list